sensor_id;sensor_type;location;lat;lon;timestamp;temperature;humidity
47521;DHT22;32291;52.010;4.446;2022-11-25T00:00:28;10.10;99.90
47521;DHT22;32291;52.010;4.446;2022-11-25T00:01:32;9.20;99.90
47521;DHT22;32291;52.010;4.446;2022-11-25T00:02:34;9.20;99.90
47521;DHT22;32291;52.010;4.446;2022-11-25T00:03:36;9.20;99.90
47521;DHT22;32291;52.010;4.446;2022-11-25T00:04:39;9.20;99.90
47521;DHT22;32291;52.010;4.446;2022-11-25T00:05:40;9.60;99.90
47521;DHT22;32291;52.010;4.446;2022-11-25T00:06:43;9.20;99.90
47521;DHT22;32291;52.010;4.446;2022-11-25T00:07:45;9.20;99.90
47521;DHT22;32291;52.010;4.446;2022-11-25T00:08:58;9.20;99.90
47521;DHT22;32291;52.010;4.446;2022-11-25T00:10:05;9.20;99.90
47521;DHT22;32291;52.010;4.446;2022-11-25T00:11:08;9.20;99.90
47521;DHT22;32291;52.010;4.446;2022-11-25T00:12:11;9.20;99.90
47521;DHT22;32291;52.010;4.446;2022-11-25T00:13:12;9.20;99.90
47521;DHT22;32291;52.010;4.446;2022-11-25T00:14:17;9.20;99.90
47521;DHT22;32291;52.010;4.446;2022-11-25T00:15:19;9.50;99.90
47521;DHT22;32291;52.010;4.446;2022-11-25T00:16:22;9.20;99.90
47521;DHT22;32291;52.010;4.446;2022-11-25T00:17:26;9.30;99.90
47521;DHT22;32291;52.010;4.446;2022-11-25T00:18:28;9.30;99.90
47521;DHT22;32291;52.010;4.446;2022-11-25T00:19:30;9.30;99.90
47521;DHT22;32291;52.010;4.446;2022-11-25T00:20:33;9.40;99.90
47521;DHT22;32291;52.010;4.446;2022-11-25T00:21:37;9.40;99.90
47521;DHT22;32291;52.010;4.446;2022-11-25T00:22:39;9.40;99.90
47521;DHT22;32291;52.010;4.446;2022-11-25T00:23:41;9.30;99.90
47521;DHT22;32291;52.010;4.446;2022-11-25T00:24:43;9.30;99.90
47521;DHT22;32291;52.010;4.446;2022-11-25T00:25:45;9.30;99.90
47521;DHT22;32291;52.010;4.446;2022-11-25T00:26:47;9.40;99.90
47521;DHT22;32291;52.010;4.446;2022-11-25T00:27:51;9.40;99.90
47521;DHT22;32291;52.010;4.446;2022-11-25T00:28:56;9.30;99.90
47521;DHT22;32291;52.010;4.446;2022-11-25T00:29:59;9.40;99.90
47521;DHT22;32291;52.010;4.446;2022-11-25T00:31:09;9.30;99.90
47521;DHT22;32291;52.010;4.446;2022-11-25T00:32:15;9.30;99.90
47521;DHT22;32291;52.010;4.446;2022-11-25T00:33:17;9.30;99.90
47521;DHT22;32291;52.010;4.446;2022-11-25T00:34:19;9.40;99.90
47521;DHT22;32291;52.010;4.446;2022-11-25T00:35:20;9.40;99.90
47521;DHT22;32291;52.010;4.446;2022-11-25T00:36:25;9.40;99.90
47521;DHT22;32291;52.010;4.446;2022-11-25T00:37:28;9.40;99.90
47521;DHT22;32291;52.010;4.446;2022-11-25T00:38:32;9.70;99.90
47521;DHT22;32291;52.010;4.446;2022-11-25T00:39:33;9.50;99.90
47521;DHT22;32291;52.010;4.446;2022-11-25T00:40:35;9.40;99.90
47521;DHT22;32291;52.010;4.446;2022-11-25T00:41:37;9.50;99.90
47521;DHT22;32291;52.010;4.446;2022-11-25T00:42:57;9.40;99.90
47521;DHT22;32291;52.010;4.446;2022-11-25T00:44:19;9.40;99.90
47521;DHT22;32291;52.010;4.446;2022-11-25T00:45:36;9.60;99.90
47521;DHT22;32291;52.010;4.446;2022-11-25T00:46:38;9.40;99.90
47521;DHT22;32291;52.010;4.446;2022-11-25T00:47:40;9.50;99.90
47521;DHT22;32291;52.010;4.446;2022-11-25T00:48:42;9.40;99.90
47521;DHT22;32291;52.010;4.446;2022-11-25T00:49:51;9.40;99.90
47521;DHT22;32291;52.010;4.446;2022-11-25T00:50:54;9.40;99.90
47521;DHT22;32291;52.010;4.446;2022-11-25T00:51:56;9.40;99.90
47521;DHT22;32291;52.010;4.446;2022-11-25T00:52:58;9.40;99.90
47521;DHT22;32291;52.010;4.446;2022-11-25T00:54:00;9.40;99.90
47521;DHT22;32291;52.010;4.446;2022-11-25T00:55:02;9.40;99.90
47521;DHT22;32291;52.010;4.446;2022-11-25T00:56:05;9.40;99.90
47521;DHT22;32291;52.010;4.446;2022-11-25T00:57:17;9.40;99.90
47521;DHT22;32291;52.010;4.446;2022-11-25T00:58:22;9.50;99.90
47521;DHT22;32291;52.010;4.446;2022-11-25T00:59:24;9.50;99.90
47521;DHT22;32291;52.010;4.446;2022-11-25T01:00:26;9.40;99.90
47521;DHT22;32291;52.010;4.446;2022-11-25T01:01:27;9.50;99.90
47521;DHT22;32291;52.010;4.446;2022-11-25T01:02:29;9.50;99.90
47521;DHT22;32291;52.010;4.446;2022-11-25T01:03:32;10.20;99.90
47521;DHT22;32291;52.010;4.446;2022-11-25T01:04:34;9.50;99.90
47521;DHT22;32291;52.010;4.446;2022-11-25T01:05:36;9.40;99.90
47521;DHT22;32291;52.010;4.446;2022-11-25T01:06:38;9.40;99.90
47521;DHT22;32291;52.010;4.446;2022-11-25T01:07:40;9.40;99.90
47521;DHT22;32291;52.010;4.446;2022-11-25T01:08:42;9.40;99.90
47521;DHT22;32291;52.010;4.446;2022-11-25T01:09:44;9.40;99.90
47521;DHT22;32291;52.010;4.446;2022-11-25T01:10:45;9.40;99.90
47521;DHT22;32291;52.010;4.446;2022-11-25T01:11:50;9.40;99.90
47521;DHT22;32291;52.010;4.446;2022-11-25T01:12:53;9.40;99.90
47521;DHT22;32291;52.010;4.446;2022-11-25T01:13:55;9.40;99.90
47521;DHT22;32291;52.010;4.446;2022-11-25T01:14:59;9.50;99.90
47521;DHT22;32291;52.010;4.446;2022-11-25T01:16:03;9.50;99.90
47521;DHT22;32291;52.010;4.446;2022-11-25T01:17:05;9.40;99.90
47521;DHT22;32291;52.010;4.446;2022-11-25T01:18:07;9.50;99.90
47521;DHT22;32291;52.010;4.446;2022-11-25T01:19:10;9.40;99.90
47521;DHT22;32291;52.010;4.446;2022-11-25T01:20:15;9.40;99.90
47521;DHT22;32291;52.010;4.446;2022-11-25T01:21:26;9.50;99.90
47521;DHT22;32291;52.010;4.446;2022-11-25T01:22:30;9.50;99.90
47521;DHT22;32291;52.010;4.446;2022-11-25T01:23:32;9.60;99.90
47521;DHT22;32291;52.010;4.446;2022-11-25T01:24:34;9.50;99.90
47521;DHT22;32291;52.010;4.446;2022-11-25T01:25:36;9.50;99.90
47521;DHT22;32291;52.010;4.446;2022-11-25T01:26:39;10.60;99.90
47521;DHT22;32291;52.010;4.446;2022-11-25T01:27:42;9.40;99.90
47521;DHT22;32291;52.010;4.446;2022-11-25T01:28:44;9.50;99.90
47521;DHT22;32291;52.010;4.446;2022-11-25T01:29:46;9.50;99.90
47521;DHT22;32291;52.010;4.446;2022-11-25T01:32:07;9.50;99.90
47521;DHT22;32291;52.010;4.446;2022-11-25T01:33:08;10.20;99.90
47521;DHT22;32291;52.010;4.446;2022-11-25T01:34:18;9.70;99.90
47521;DHT22;32291;52.010;4.446;2022-11-25T01:35:22;9.50;99.90
47521;DHT22;32291;52.010;4.446;2022-11-25T01:36:24;9.50;99.90
47521;DHT22;32291;52.010;4.446;2022-11-25T01:37:27;10.50;99.90
47521;DHT22;32291;52.010;4.446;2022-11-25T01:38:29;9.50;99.90
47521;DHT22;32291;52.010;4.446;2022-11-25T01:39:31;9.60;99.90
47521;DHT22;32291;52.010;4.446;2022-11-25T01:40:34;9.50;99.90
47521;DHT22;32291;52.010;4.446;2022-11-25T01:41:36;9.50;99.90
47521;DHT22;32291;52.010;4.446;2022-11-25T01:42:42;9.50;99.90
47521;DHT22;32291;52.010;4.446;2022-11-25T01:44:15;10.40;99.90
47521;DHT22;32291;52.010;4.446;2022-11-25T01:46:28;9.60;99.90
47521;DHT22;32291;52.010;4.446;2022-11-25T01:47:39;9.60;99.90
47521;DHT22;32291;52.010;4.446;2022-11-25T01:48:47;9.60;99.90
47521;DHT22;32291;52.010;4.446;2022-11-25T01:50:02;9.60;99.90
47521;DHT22;32291;52.010;4.446;2022-11-25T01:51:40;9.60;99.90
47521;DHT22;32291;52.010;4.446;2022-11-25T01:52:49;9.60;99.90
47521;DHT22;32291;52.010;4.446;2022-11-25T01:53:58;9.60;99.90
47521;DHT22;32291;52.010;4.446;2022-11-25T01:55:12;9.60;99.90
47521;DHT22;32291;52.010;4.446;2022-11-25T01:56:18;9.60;99.90
47521;DHT22;32291;52.010;4.446;2022-11-25T01:57:25;9.60;99.90
47521;DHT22;32291;52.010;4.446;2022-11-25T01:58:38;9.60;99.90
47521;DHT22;32291;52.010;4.446;2022-11-25T01:59:45;9.60;99.90
47521;DHT22;32291;52.010;4.446;2022-11-25T02:00:51;9.60;99.90
47521;DHT22;32291;52.010;4.446;2022-11-25T02:01:53;9.50;99.90
47521;DHT22;32291;52.010;4.446;2022-11-25T02:02:57;9.50;99.90
47521;DHT22;32291;52.010;4.446;2022-11-25T02:03:59;9.60;99.90
47521;DHT22;32291;52.010;4.446;2022-11-25T02:05:03;9.60;99.90
47521;DHT22;32291;52.010;4.446;2022-11-25T02:07:40;9.50;99.90
47521;DHT22;32291;52.010;4.446;2022-11-25T02:08:47;9.50;99.90
47521;DHT22;32291;52.010;4.446;2022-11-25T02:09:53;9.40;99.90
47521;DHT22;32291;52.010;4.446;2022-11-25T02:10:57;9.50;99.90
47521;DHT22;32291;52.010;4.446;2022-11-25T02:12:02;10.10;99.90
47521;DHT22;32291;52.010;4.446;2022-11-25T02:13:04;9.40;99.90
47521;DHT22;32291;52.010;4.446;2022-11-25T02:14:07;9.80;99.90
47521;DHT22;32291;52.010;4.446;2022-11-25T02:15:10;9.30;99.90
47521;DHT22;32291;52.010;4.446;2022-11-25T02:16:12;9.70;99.90
47521;DHT22;32291;52.010;4.446;2022-11-25T02:17:14;9.30;99.90
47521;DHT22;32291;52.010;4.446;2022-11-25T02:18:16;9.40;99.90
47521;DHT22;32291;52.010;4.446;2022-11-25T02:19:25;9.40;99.90
47521;DHT22;32291;52.010;4.446;2022-11-25T02:20:38;9.60;99.90
47521;DHT22;32291;52.010;4.446;2022-11-25T02:21:44;9.40;99.90
47521;DHT22;32291;52.010;4.446;2022-11-25T02:24:57;9.30;99.90
47521;DHT22;32291;52.010;4.446;2022-11-25T02:25:46;9.30;99.90
47521;DHT22;32291;52.010;4.446;2022-11-25T02:26:48;9.30;99.90
47521;DHT22;32291;52.010;4.446;2022-11-25T02:28:18;9.30;99.90
47521;DHT22;32291;52.010;4.446;2022-11-25T02:29:26;9.30;99.90
47521;DHT22;32291;52.010;4.446;2022-11-25T02:30:29;9.30;99.90
47521;DHT22;32291;52.010;4.446;2022-11-25T02:31:31;9.30;99.90
47521;DHT22;32291;52.010;4.446;2022-11-25T02:32:33;9.40;99.90
47521;DHT22;32291;52.010;4.446;2022-11-25T02:33:35;9.30;99.90
47521;DHT22;32291;52.010;4.446;2022-11-25T02:34:46;9.30;99.90
47521;DHT22;32291;52.010;4.446;2022-11-25T02:36:49;9.30;99.90
47521;DHT22;32291;52.010;4.446;2022-11-25T02:37:56;9.40;99.90
47521;DHT22;32291;52.010;4.446;2022-11-25T02:39:03;9.20;99.90
47521;DHT22;32291;52.010;4.446;2022-11-25T02:40:05;9.20;99.90
47521;DHT22;32291;52.010;4.446;2022-11-25T02:41:31;9.20;99.90
47521;DHT22;32291;52.010;4.446;2022-11-25T02:42:48;9.20;99.90
47521;DHT22;32291;52.010;4.446;2022-11-25T02:43:51;9.20;99.90
47521;DHT22;32291;52.010;4.446;2022-11-25T02:44:53;9.10;99.90
47521;DHT22;32291;52.010;4.446;2022-11-25T02:46:14;9.10;99.90
47521;DHT22;32291;52.010;4.446;2022-11-25T02:47:17;9.10;99.90
47521;DHT22;32291;52.010;4.446;2022-11-25T02:48:19;9.20;99.90
47521;DHT22;32291;52.010;4.446;2022-11-25T02:49:21;9.10;99.90
47521;DHT22;32291;52.010;4.446;2022-11-25T02:50:23;9.20;99.90
47521;DHT22;32291;52.010;4.446;2022-11-25T02:51:28;9.20;99.90
47521;DHT22;32291;52.010;4.446;2022-11-25T02:52:31;9.10;99.90
47521;DHT22;32291;52.010;4.446;2022-11-25T02:53:32;9.10;99.90
47521;DHT22;32291;52.010;4.446;2022-11-25T02:54:34;10.10;99.90
47521;DHT22;32291;52.010;4.446;2022-11-25T02:55:36;9.10;99.90
47521;DHT22;32291;52.010;4.446;2022-11-25T02:56:39;9.10;99.90
47521;DHT22;32291;52.010;4.446;2022-11-25T02:57:40;9.10;99.90
47521;DHT22;32291;52.010;4.446;2022-11-25T02:58:42;9.10;99.90
47521;DHT22;32291;52.010;4.446;2022-11-25T02:59:44;9.10;99.90
47521;DHT22;32291;52.010;4.446;2022-11-25T03:00:47;9.10;99.90
47521;DHT22;32291;52.010;4.446;2022-11-25T03:01:50;9.10;99.90
47521;DHT22;32291;52.010;4.446;2022-11-25T03:02:53;9.10;99.90
47521;DHT22;32291;52.010;4.446;2022-11-25T03:03:55;9.10;99.90
47521;DHT22;32291;52.010;4.446;2022-11-25T03:04:57;9.10;99.90
47521;DHT22;32291;52.010;4.446;2022-11-25T03:05:59;9.00;99.90
47521;DHT22;32291;52.010;4.446;2022-11-25T03:07:01;9.00;99.90
47521;DHT22;32291;52.010;4.446;2022-11-25T03:08:04;9.00;99.90
47521;DHT22;32291;52.010;4.446;2022-11-25T03:09:06;9.00;99.90
47521;DHT22;32291;52.010;4.446;2022-11-25T03:10:08;9.00;99.90
47521;DHT22;32291;52.010;4.446;2022-11-25T03:11:10;9.00;99.90
47521;DHT22;32291;52.010;4.446;2022-11-25T03:12:12;9.00;99.90
47521;DHT22;32291;52.010;4.446;2022-11-25T03:13:21;9.00;99.90
47521;DHT22;32291;52.010;4.446;2022-11-25T03:14:23;9.10;99.90
47521;DHT22;32291;52.010;4.446;2022-11-25T03:15:25;9.10;99.90
47521;DHT22;32291;52.010;4.446;2022-11-25T03:16:27;9.80;99.90
47521;DHT22;32291;52.010;4.446;2022-11-25T03:17:29;9.10;99.90
47521;DHT22;32291;52.010;4.446;2022-11-25T03:18:31;9.10;99.90
47521;DHT22;32291;52.010;4.446;2022-11-25T03:19:33;9.00;99.90
47521;DHT22;32291;52.010;4.446;2022-11-25T03:20:35;9.00;99.90
47521;DHT22;32291;52.010;4.446;2022-11-25T03:21:37;9.50;99.90
47521;DHT22;32291;52.010;4.446;2022-11-25T03:22:39;9.00;99.90
47521;DHT22;32291;52.010;4.446;2022-11-25T03:23:42;9.00;99.90
47521;DHT22;32291;52.010;4.446;2022-11-25T03:24:44;9.00;99.90
47521;DHT22;32291;52.010;4.446;2022-11-25T03:25:45;9.00;99.90
47521;DHT22;32291;52.010;4.446;2022-11-25T03:26:47;8.90;99.90
47521;DHT22;32291;52.010;4.446;2022-11-25T03:27:49;8.90;99.90
47521;DHT22;32291;52.010;4.446;2022-11-25T03:28:51;8.90;99.90
47521;DHT22;32291;52.010;4.446;2022-11-25T03:29:53;8.90;99.90
47521;DHT22;32291;52.010;4.446;2022-11-25T03:30:55;9.20;99.90
47521;DHT22;32291;52.010;4.446;2022-11-25T03:31:56;8.90;99.90
47521;DHT22;32291;52.010;4.446;2022-11-25T03:32:58;8.90;99.90
47521;DHT22;32291;52.010;4.446;2022-11-25T03:34:00;8.90;99.90
47521;DHT22;32291;52.010;4.446;2022-11-25T03:35:04;8.90;99.90
47521;DHT22;32291;52.010;4.446;2022-11-25T03:36:06;8.90;99.90
47521;DHT22;32291;52.010;4.446;2022-11-25T03:37:08;8.90;99.90
47521;DHT22;32291;52.010;4.446;2022-11-25T03:38:09;8.90;99.90
47521;DHT22;32291;52.010;4.446;2022-11-25T03:39:11;8.80;99.90
47521;DHT22;32291;52.010;4.446;2022-11-25T03:40:14;8.80;99.90
47521;DHT22;32291;52.010;4.446;2022-11-25T03:41:16;8.80;99.90
47521;DHT22;32291;52.010;4.446;2022-11-25T03:42:18;8.70;99.90
47521;DHT22;32291;52.010;4.446;2022-11-25T03:43:20;8.70;99.90
47521;DHT22;32291;52.010;4.446;2022-11-25T03:44:21;8.80;99.90
47521;DHT22;32291;52.010;4.446;2022-11-25T03:45:24;8.70;99.90
47521;DHT22;32291;52.010;4.446;2022-11-25T03:46:25;8.70;99.90
47521;DHT22;32291;52.010;4.446;2022-11-25T03:47:27;8.70;99.90
47521;DHT22;32291;52.010;4.446;2022-11-25T03:48:32;8.70;99.90
47521;DHT22;32291;52.010;4.446;2022-11-25T03:49:33;8.70;99.90
47521;DHT22;32291;52.010;4.446;2022-11-25T03:50:35;8.70;99.90
47521;DHT22;32291;52.010;4.446;2022-11-25T03:51:37;8.70;99.90
47521;DHT22;32291;52.010;4.446;2022-11-25T03:52:40;9.10;99.90
47521;DHT22;32291;52.010;4.446;2022-11-25T03:53:42;8.70;99.90
47521;DHT22;32291;52.010;4.446;2022-11-25T03:54:44;8.60;99.90
47521;DHT22;32291;52.010;4.446;2022-11-25T03:55:47;8.60;99.90
47521;DHT22;32291;52.010;4.446;2022-11-25T03:56:49;8.60;99.90
47521;DHT22;32291;52.010;4.446;2022-11-25T03:57:50;9.40;99.90
47521;DHT22;32291;52.010;4.446;2022-11-25T03:58:52;8.50;99.90
47521;DHT22;32291;52.010;4.446;2022-11-25T03:59:54;8.50;99.90
47521;DHT22;32291;52.010;4.446;2022-11-25T04:01:02;8.50;99.90
47521;DHT22;32291;52.010;4.446;2022-11-25T04:02:05;8.50;99.90
47521;DHT22;32291;52.010;4.446;2022-11-25T04:03:07;8.40;99.90
47521;DHT22;32291;52.010;4.446;2022-11-25T04:04:08;8.40;99.90
47521;DHT22;32291;52.010;4.446;2022-11-25T04:05:10;8.40;99.90
47521;DHT22;32291;52.010;4.446;2022-11-25T04:06:11;8.40;99.90
47521;DHT22;32291;52.010;4.446;2022-11-25T04:07:13;8.40;99.90
47521;DHT22;32291;52.010;4.446;2022-11-25T04:08:15;8.30;99.90
47521;DHT22;32291;52.010;4.446;2022-11-25T04:09:17;8.30;99.90
47521;DHT22;32291;52.010;4.446;2022-11-25T04:10:19;8.30;99.90
47521;DHT22;32291;52.010;4.446;2022-11-25T04:11:22;8.40;99.90
47521;DHT22;32291;52.010;4.446;2022-11-25T04:12:44;8.40;99.90
47521;DHT22;32291;52.010;4.446;2022-11-25T04:13:49;8.30;99.90
47521;DHT22;32291;52.010;4.446;2022-11-25T04:14:50;8.30;99.90
47521;DHT22;32291;52.010;4.446;2022-11-25T04:15:52;8.30;99.90
47521;DHT22;32291;52.010;4.446;2022-11-25T04:16:54;8.20;99.90
47521;DHT22;32291;52.010;4.446;2022-11-25T04:17:55;8.20;99.90
47521;DHT22;32291;52.010;4.446;2022-11-25T04:18:57;8.20;99.90
47521;DHT22;32291;52.010;4.446;2022-11-25T04:19:59;8.30;99.90
47521;DHT22;32291;52.010;4.446;2022-11-25T04:21:01;8.20;99.90
47521;DHT22;32291;52.010;4.446;2022-11-25T04:22:03;8.20;99.90
47521;DHT22;32291;52.010;4.446;2022-11-25T04:23:05;8.60;99.90
47521;DHT22;32291;52.010;4.446;2022-11-25T04:24:08;8.80;99.90
47521;DHT22;32291;52.010;4.446;2022-11-25T04:25:09;8.20;99.90
47521;DHT22;32291;52.010;4.446;2022-11-25T04:26:11;9.10;99.90
47521;DHT22;32291;52.010;4.446;2022-11-25T04:27:14;8.20;99.90
47521;DHT22;32291;52.010;4.446;2022-11-25T04:28:16;8.40;99.90
47521;DHT22;32291;52.010;4.446;2022-11-25T04:29:17;8.20;99.90
47521;DHT22;32291;52.010;4.446;2022-11-25T04:30:19;8.20;99.90
47521;DHT22;32291;52.010;4.446;2022-11-25T04:31:21;8.20;99.90
47521;DHT22;32291;52.010;4.446;2022-11-25T04:32:23;8.20;99.90
47521;DHT22;32291;52.010;4.446;2022-11-25T04:33:25;8.20;99.90
47521;DHT22;32291;52.010;4.446;2022-11-25T04:34:27;8.20;99.90
47521;DHT22;32291;52.010;4.446;2022-11-25T04:35:28;8.20;99.90
47521;DHT22;32291;52.010;4.446;2022-11-25T04:36:30;8.20;99.90
47521;DHT22;32291;52.010;4.446;2022-11-25T04:37:31;8.20;99.90
47521;DHT22;32291;52.010;4.446;2022-11-25T04:38:33;8.20;99.90
47521;DHT22;32291;52.010;4.446;2022-11-25T04:39:35;8.10;99.90
47521;DHT22;32291;52.010;4.446;2022-11-25T04:40:37;8.10;99.90
47521;DHT22;32291;52.010;4.446;2022-11-25T04:41:39;8.10;99.90
47521;DHT22;32291;52.010;4.446;2022-11-25T04:42:40;8.20;99.90
47521;DHT22;32291;52.010;4.446;2022-11-25T04:43:42;8.10;99.90
47521;DHT22;32291;52.010;4.446;2022-11-25T04:44:44;8.10;99.90
47521;DHT22;32291;52.010;4.446;2022-11-25T04:45:47;8.60;99.90
47521;DHT22;32291;52.010;4.446;2022-11-25T04:46:49;8.10;99.90
47521;DHT22;32291;52.010;4.446;2022-11-25T04:47:51;8.10;99.90
47521;DHT22;32291;52.010;4.446;2022-11-25T04:48:53;8.20;99.90
47521;DHT22;32291;52.010;4.446;2022-11-25T04:49:54;8.20;99.90
47521;DHT22;32291;52.010;4.446;2022-11-25T04:50:56;8.20;99.90
47521;DHT22;32291;52.010;4.446;2022-11-25T04:51:58;9.10;99.90
47521;DHT22;32291;52.010;4.446;2022-11-25T04:52:59;8.30;99.90
47521;DHT22;32291;52.010;4.446;2022-11-25T04:54:01;8.30;99.90
47521;DHT22;32291;52.010;4.446;2022-11-25T04:55:04;8.50;99.90
47521;DHT22;32291;52.010;4.446;2022-11-25T04:56:06;8.30;99.90
47521;DHT22;32291;52.010;4.446;2022-11-25T04:57:13;8.30;99.90
47521;DHT22;32291;52.010;4.446;2022-11-25T04:58:15;8.80;99.90
47521;DHT22;32291;52.010;4.446;2022-11-25T04:59:37;8.60;99.90
47521;DHT22;32291;52.010;4.446;2022-11-25T05:00:42;8.20;99.90
47521;DHT22;32291;52.010;4.446;2022-11-25T05:01:44;8.20;99.90
47521;DHT22;32291;52.010;4.446;2022-11-25T05:02:46;8.20;99.90
47521;DHT22;32291;52.010;4.446;2022-11-25T05:03:48;8.10;99.90
47521;DHT22;32291;52.010;4.446;2022-11-25T05:04:52;8.10;99.90
47521;DHT22;32291;52.010;4.446;2022-11-25T05:05:56;8.10;99.90
47521;DHT22;32291;52.010;4.446;2022-11-25T05:06:58;8.10;99.90
47521;DHT22;32291;52.010;4.446;2022-11-25T05:08:00;8.10;99.90
47521;DHT22;32291;52.010;4.446;2022-11-25T05:09:03;8.10;99.90
47521;DHT22;32291;52.010;4.446;2022-11-25T05:10:05;8.00;99.90
47521;DHT22;32291;52.010;4.446;2022-11-25T05:11:08;8.00;99.90
47521;DHT22;32291;52.010;4.446;2022-11-25T05:12:18;8.10;99.90
47521;DHT22;32291;52.010;4.446;2022-11-25T05:13:24;8.10;99.90
47521;DHT22;32291;52.010;4.446;2022-11-25T05:14:27;8.10;99.90
47521;DHT22;32291;52.010;4.446;2022-11-25T05:15:29;8.30;99.90
47521;DHT22;32291;52.010;4.446;2022-11-25T05:16:31;8.10;99.90
47521;DHT22;32291;52.010;4.446;2022-11-25T05:17:33;8.10;99.90
47521;DHT22;32291;52.010;4.446;2022-11-25T05:18:35;8.10;99.90
47521;DHT22;32291;52.010;4.446;2022-11-25T05:19:37;8.10;99.90
47521;DHT22;32291;52.010;4.446;2022-11-25T05:20:39;8.10;99.90
47521;DHT22;32291;52.010;4.446;2022-11-25T05:21:41;8.20;99.90
47521;DHT22;32291;52.010;4.446;2022-11-25T05:22:43;8.60;99.90
47521;DHT22;32291;52.010;4.446;2022-11-25T05:23:45;8.20;99.90
47521;DHT22;32291;52.010;4.446;2022-11-25T05:24:47;8.30;99.90
47521;DHT22;32291;52.010;4.446;2022-11-25T05:25:49;8.30;99.90
47521;DHT22;32291;52.010;4.446;2022-11-25T05:26:51;8.20;99.90
47521;DHT22;32291;52.010;4.446;2022-11-25T05:27:53;8.20;99.90
47521;DHT22;32291;52.010;4.446;2022-11-25T05:28:55;8.10;99.90
47521;DHT22;32291;52.010;4.446;2022-11-25T05:29:57;8.10;99.90
47521;DHT22;32291;52.010;4.446;2022-11-25T05:30:59;8.10;99.90
47521;DHT22;32291;52.010;4.446;2022-11-25T05:32:01;8.10;99.90
47521;DHT22;32291;52.010;4.446;2022-11-25T05:33:03;8.10;99.90
47521;DHT22;32291;52.010;4.446;2022-11-25T05:34:05;8.10;99.90
47521;DHT22;32291;52.010;4.446;2022-11-25T05:35:07;8.00;99.90
47521;DHT22;32291;52.010;4.446;2022-11-25T05:36:09;8.00;99.90
47521;DHT22;32291;52.010;4.446;2022-11-25T05:37:13;8.40;99.90
47521;DHT22;32291;52.010;4.446;2022-11-25T05:38:15;8.00;99.90
47521;DHT22;32291;52.010;4.446;2022-11-25T05:39:17;8.10;99.90
47521;DHT22;32291;52.010;4.446;2022-11-25T05:40:19;8.00;99.90
47521;DHT22;32291;52.010;4.446;2022-11-25T05:41:21;7.90;99.90
47521;DHT22;32291;52.010;4.446;2022-11-25T05:42:24;7.90;99.90
47521;DHT22;32291;52.010;4.446;2022-11-25T05:43:26;7.90;99.90
47521;DHT22;32291;52.010;4.446;2022-11-25T05:44:28;7.90;99.90
47521;DHT22;32291;52.010;4.446;2022-11-25T05:45:30;8.40;99.90
47521;DHT22;32291;52.010;4.446;2022-11-25T05:46:32;7.80;99.90
47521;DHT22;32291;52.010;4.446;2022-11-25T05:47:34;7.80;99.90
47521;DHT22;32291;52.010;4.446;2022-11-25T05:48:36;7.80;99.90
47521;DHT22;32291;52.010;4.446;2022-11-25T05:49:38;7.80;99.90
47521;DHT22;32291;52.010;4.446;2022-11-25T05:50:39;7.80;99.90
47521;DHT22;32291;52.010;4.446;2022-11-25T05:51:41;7.80;99.90
47521;DHT22;32291;52.010;4.446;2022-11-25T05:52:43;7.80;99.90
47521;DHT22;32291;52.010;4.446;2022-11-25T05:53:45;7.80;99.90
47521;DHT22;32291;52.010;4.446;2022-11-25T05:54:47;7.80;99.90
47521;DHT22;32291;52.010;4.446;2022-11-25T05:55:56;7.80;99.90
47521;DHT22;32291;52.010;4.446;2022-11-25T05:57:00;8.30;99.90
47521;DHT22;32291;52.010;4.446;2022-11-25T05:58:02;7.70;99.90
47521;DHT22;32291;52.010;4.446;2022-11-25T05:59:06;7.70;99.90
47521;DHT22;32291;52.010;4.446;2022-11-25T06:00:08;7.70;99.90
47521;DHT22;32291;52.010;4.446;2022-11-25T06:01:12;7.70;99.90
47521;DHT22;32291;52.010;4.446;2022-11-25T06:02:15;7.70;99.90
47521;DHT22;32291;52.010;4.446;2022-11-25T06:03:17;7.60;99.90
47521;DHT22;32291;52.010;4.446;2022-11-25T06:04:19;7.50;99.90
47521;DHT22;32291;52.010;4.446;2022-11-25T06:05:21;7.50;99.90
47521;DHT22;32291;52.010;4.446;2022-11-25T06:06:23;7.50;99.90
47521;DHT22;32291;52.010;4.446;2022-11-25T06:07:24;7.50;99.90
47521;DHT22;32291;52.010;4.446;2022-11-25T06:08:27;7.40;99.90
47521;DHT22;32291;52.010;4.446;2022-11-25T06:09:29;7.40;99.90
47521;DHT22;32291;52.010;4.446;2022-11-25T06:10:31;7.80;99.90
47521;DHT22;32291;52.010;4.446;2022-11-25T06:11:33;7.40;99.90
47521;DHT22;32291;52.010;4.446;2022-11-25T06:12:35;7.40;99.90
47521;DHT22;32291;52.010;4.446;2022-11-25T06:13:37;7.50;99.90
47521;DHT22;32291;52.010;4.446;2022-11-25T06:14:40;7.40;99.90
47521;DHT22;32291;52.010;4.446;2022-11-25T06:15:43;7.50;99.90
47521;DHT22;32291;52.010;4.446;2022-11-25T06:16:45;7.50;99.90
47521;DHT22;32291;52.010;4.446;2022-11-25T06:17:47;8.00;99.90
47521;DHT22;32291;52.010;4.446;2022-11-25T06:18:50;7.40;99.90
47521;DHT22;32291;52.010;4.446;2022-11-25T06:19:52;7.50;99.90
47521;DHT22;32291;52.010;4.446;2022-11-25T06:20:57;7.40;99.90
47521;DHT22;32291;52.010;4.446;2022-11-25T06:22:00;7.40;99.90
47521;DHT22;32291;52.010;4.446;2022-11-25T06:23:02;7.30;99.90
47521;DHT22;32291;52.010;4.446;2022-11-25T06:24:06;7.30;99.90
47521;DHT22;32291;52.010;4.446;2022-11-25T06:25:09;7.30;99.90
47521;DHT22;32291;52.010;4.446;2022-11-25T06:26:19;7.30;99.90
47521;DHT22;32291;52.010;4.446;2022-11-25T06:27:23;7.20;99.90
47521;DHT22;32291;52.010;4.446;2022-11-25T06:28:25;7.20;99.90
47521;DHT22;32291;52.010;4.446;2022-11-25T06:29:27;7.30;99.90
47521;DHT22;32291;52.010;4.446;2022-11-25T06:30:30;7.30;99.90
47521;DHT22;32291;52.010;4.446;2022-11-25T06:31:38;7.30;99.90
47521;DHT22;32291;52.010;4.446;2022-11-25T06:32:41;7.30;99.90
47521;DHT22;32291;52.010;4.446;2022-11-25T06:33:48;7.20;99.90
47521;DHT22;32291;52.010;4.446;2022-11-25T06:34:50;7.20;99.90
47521;DHT22;32291;52.010;4.446;2022-11-25T06:35:52;7.80;99.90
47521;DHT22;32291;52.010;4.446;2022-11-25T06:36:53;7.30;99.90
47521;DHT22;32291;52.010;4.446;2022-11-25T06:37:58;7.30;99.90
47521;DHT22;32291;52.010;4.446;2022-11-25T06:39:00;7.30;99.90
47521;DHT22;32291;52.010;4.446;2022-11-25T06:40:03;7.30;99.90
47521;DHT22;32291;52.010;4.446;2022-11-25T06:41:05;7.20;99.90
47521;DHT22;32291;52.010;4.446;2022-11-25T06:42:07;7.20;99.90
47521;DHT22;32291;52.010;4.446;2022-11-25T06:43:08;7.20;99.90
47521;DHT22;32291;52.010;4.446;2022-11-25T06:44:10;7.30;99.90
47521;DHT22;32291;52.010;4.446;2022-11-25T06:45:12;7.10;99.90
47521;DHT22;32291;52.010;4.446;2022-11-25T06:46:16;7.20;99.90
47521;DHT22;32291;52.010;4.446;2022-11-25T06:47:19;7.70;99.90
47521;DHT22;32291;52.010;4.446;2022-11-25T06:48:21;7.20;99.90
47521;DHT22;32291;52.010;4.446;2022-11-25T06:49:23;7.20;99.90
47521;DHT22;32291;52.010;4.446;2022-11-25T06:50:25;7.30;99.90
47521;DHT22;32291;52.010;4.446;2022-11-25T06:51:27;7.30;99.90
47521;DHT22;32291;52.010;4.446;2022-11-25T06:52:30;7.30;99.90
47521;DHT22;32291;52.010;4.446;2022-11-25T06:53:33;7.50;99.90
47521;DHT22;32291;52.010;4.446;2022-11-25T06:54:35;7.60;99.90